Time;durP1;ratioP1;P1;durP2;ratioP2;P2;SDS_P1;SDS_P2;PMS_P1;PMS_P2;Temp;Humidity;BMP_temperature;BMP_pressure;BME280_temperature;BME280_humidity;BME280_pressure;Samples;Min_cycle;Max_cycle;Signal;HPM_P1;HPM_P2
2022/10/15 00:00:46;;;;;;;13.75;8.93;;;;;;;6.83;90.26;98022.73;1748692;82;20993;-77
2022/10/15 00:03:15;;;;;;;17.50;9.55;;;;;;;6.80;90.48;98020.14;1735693;82;20997;-77
2022/10/15 00:05:42;;;;;;;14.63;9.05;;;;;;;6.78;90.54;98021.94;1737955;81;20985;-77
2022/10/15 00:08:11;;;;;;;15.98;9.60;;;;;;;6.76;90.38;98029.44;1752488;81;21339;-77
2022/10/15 00:10:38;;;;;;;16.95;9.15;;;;;;;6.75;90.47;98029.86;1752456;81;20981;-77
2022/10/15 00:13:05;;;;;;;14.80;8.48;;;;;;;6.74;90.49;98027.66;1748383;81;20970;-77
2022/10/15 00:15:34;;;;;;;15.18;8.58;;;;;;;6.75;90.38;98023.28;1723059;82;20993;-77
2022/10/15 00:18:00;;;;;;;15.32;8.53;;;;;;;6.71;90.23;98018.51;1731647;83;21001;-77
2022/10/15 00:20:27;;;;;;;19.67;9.75;;;;;;;6.72;90.62;98025.94;1736288;82;21435;-77
2022/10/15 00:22:53;;;;;;;16.25;8.58;;;;;;;6.76;90.81;98028.11;1736335;82;20994;-77
2022/10/15 00:25:20;;;;;;;17.95;7.80;;;;;;;6.77;90.34;98028.53;1734274;82;20986;-77
2022/10/15 00:27:48;;;;;;;17.95;8.95;;;;;;;6.71;90.13;98026.84;1736312;82;20974;-77
2022/10/15 00:30:15;;;;;;;14.98;8.33;;;;;;;6.69;90.13;98023.38;1736467;83;20938;-77
2022/10/15 00:32:43;;;;;;;16.82;8.50;;;;;;;6.66;90.42;98017.70;1736362;82;20981;-77
2022/10/15 00:35:10;;;;;;;18.85;8.40;;;;;;;6.67;90.34;98016.80;1736212;82;21054;-77
2022/10/15 00:37:37;;;;;;;13.68;8.70;;;;;;;6.66;90.51;98015.06;1724421;82;20993;-77
2022/10/15 00:40:05;;;;;;;14.90;9.40;;;;;;;6.65;90.19;98015.97;1733261;83;20981;-77
2022/10/15 00:42:32;;;;;;;15.60;8.93;;;;;;;6.61;90.31;98020.84;1736286;82;20990;-77
2022/10/15 00:44:59;;;;;;;19.00;9.13;;;;;;;6.59;90.43;98012.08;1736311;83;20978;-77
2022/10/15 00:47:34;;;;;;;16.45;8.98;;;;;;;6.55;90.43;98013.88;1736180;82;21005;-77
2022/10/15 00:50:06;;;;;;;15.08;8.60;;;;;;;6.54;90.23;98002.05;1723434;82;21126;-77
2022/10/15 00:52:59;;;;;;;19.23;9.90;;;;;;;6.47;89.82;98002.57;1736399;83;21030;-77
2022/10/15 00:55:34;;;;;;;16.57;7.92;;;;;;;6.41;89.97;98003.97;1736018;82;20997;-78
2022/10/15 00:58:08;;;;;;;14.83;9.00;;;;;;;6.33;89.79;98002.32;1736434;82;21032;-78
2022/10/15 01:00:34;;;;;;;;;;;;;;;6.30;89.91;98004.09;1737953;83;20985;-78
2022/10/15 01:03:02;;;;;;;17.85;9.58;;;;;;;6.23;89.80;98007.24;1712821;83;20135;-77
2022/10/15 01:05:30;;;;;;;18.00;9.00;;;;;;;6.17;90.04;98008.20;1736315;82;20986;-78
2022/10/15 01:07:56;;;;;;;17.92;9.18;;;;;;;6.10;89.60;98005.67;1713580;83;21021;-78
2022/10/15 01:10:28;;;;;;;15.70;8.68;;;;;;;6.03;89.77;98007.03;1735269;83;21404;-78
2022/10/15 01:13:10;;;;;;;15.98;9.25;;;;;;;6.00;89.87;98003.53;1737297;82;20997;-78
2022/10/15 01:15:55;;;;;;;17.87;9.28;;;;;;;5.96;89.61;98009.28;1752227;82;21375;-78
2022/10/15 01:18:27;;;;;;;16.87;8.90;;;;;;;5.89;89.72;98014.16;1752396;82;20961;-78
2022/10/15 01:21:09;;;;;;;17.67;9.35;;;;;;;5.81;89.50;98019.07;1733292;82;21100;-78
2022/10/15 01:24:14;;;;;;;18.82;9.60;;;;;;;5.78;89.95;98016.46;1751565;82;21403;-79
2022/10/15 01:27:18;;;;;;;13.88;8.78;;;;;;;5.77;90.20;98015.19;1731373;81;21481;-78
2022/10/15 01:30:16;;;;;;;17.48;8.63;;;;;;;5.74;90.06;98016.09;1693611;84;20960;-78
2022/10/15 01:33:00;;;;;;;19.60;9.10;;;;;;;5.68;89.83;98018.75;1738657;82;21001;-78
2022/10/15 01:35:52;;;;;;;16.05;9.10;;;;;;;5.60;89.50;98018.83;1752848;82;20981;-78
2022/10/15 01:38:52;;;;;;;12.78;8.03;;;;;;;5.54;89.69;98022.83;1744731;80;20964;-78
2022/10/15 01:41:25;;;;;;;15.98;8.85;;;;;;;5.45;89.49;98015.91;1743881;82;21485;-78
2022/10/15 01:44:00;;;;;;;14.75;8.20;;;;;;;5.38;89.76;98017.72;1752224;82;21016;-78
2022/10/15 01:46:46;;;;;;;18.52;8.93;;;;;;;5.34;89.58;98016.42;1751735;82;20981;-78
2022/10/15 01:49:20;;;;;;;19.95;9.00;;;;;;;5.31;89.91;98020.41;1747649;82;21122;-78
2022/10/15 01:51:49;;;;;;;14.93;9.05;;;;;;;5.29;90.20;98014.70;1752500;82;21037;-78
2022/10/15 01:54:18;;;;;;;18.42;9.38;;;;;;;5.29;90.11;98019.95;1752566;82;21442;-78
2022/10/15 01:56:51;;;;;;;16.75;9.08;;;;;;;5.26;89.84;98017.80;1731190;81;21155;-78
2022/10/15 01:59:23;;;;;;;16.23;8.48;;;;;;;5.23;90.03;98018.69;1745521;82;20993;-78
2022/10/15 02:01:50;;;;;;;17.85;8.95;;;;;;;5.19;89.95;98014.34;1745836;82;21008;-77
2022/10/15 02:04:22;;;;;;;15.20;9.00;;;;;;;5.15;90.23;98005.62;1752335;82;21001;-77
2022/10/15 02:07:00;;;;;;;13.38;8.40;;;;;;;5.17;90.24;98016.12;1751205;82;20966;-77
2022/10/15 02:09:49;;;;;;;15.85;8.48;;;;;;;5.12;90.24;98008.25;1739174;82;21052;-77
2022/10/15 02:12:33;;;;;;;15.40;8.80;;;;;;;5.12;90.39;98006.09;1736044;82;21398;-77
2022/10/15 02:15:21;;;;;;;17.82;8.85;;;;;;;5.11;90.99;98010.92;1752543;82;21025;-77
2022/10/15 02:18:19;;;;;;;18.42;9.00;;;;;;;5.07;90.73;98012.67;1752454;82;21025;-77
2022/10/15 02:21:19;;;;;;;17.98;8.63;;;;;;;5.06;90.70;98016.19;1752574;82;21556;-77
2022/10/15 02:24:03;;;;;;;15.78;8.70;;;;;;;5.06;90.68;98020.13;1733904;82;20977;-77
2022/10/15 02:26:30;;;;;;;11.93;7.50;;;;;;;5.10;90.74;98015.72;1752515;82;21463;-77
2022/10/15 02:29:00;;;;;;;14.00;7.25;;;;;;;5.10;90.80;98017.92;1752496;81;21012;-77
2022/10/15 02:31:30;;;;;;;12.78;7.58;;;;;;;5.12;90.68;98017.45;1732026;82;21443;-77
2022/10/15 02:34:03;;;;;;;13.45;7.80;;;;;;;5.13;90.79;98019.65;1752469;81;21009;-77
2022/10/15 02:36:30;;;;;;;17.80;7.95;;;;;;;5.15;90.93;98020.53;1738187;82;21056;-77
2022/10/15 02:38:59;;;;;;;16.67;8.13;;;;;;;5.18;91.08;98021.80;1734599;82;20941;-77
2022/10/15 02:41:28;;;;;;;11.20;7.37;;;;;;;5.21;91.02;98015.65;1750207;82;21004;-77
2022/10/15 02:43:56;;;;;;;12.33;7.62;;;;;;;5.23;90.83;98023.09;1747240;80;20997;-77
2022/10/15 02:46:22;;;;;;;12.35;6.75;;;;;;;5.20;90.64;98022.68;1723925;82;21002;-77
2022/10/15 02:48:49;;;;;;;11.48;7.08;;;;;;;5.19;90.71;98024.84;1752224;82;21036;-77
2022/10/15 02:51:17;;;;;;;12.50;7.60;;;;;;;5.17;90.40;98027.06;1731383;80;21061;-77
2022/10/15 02:53:44;;;;;;;11.97;7.15;;;;;;;5.12;90.61;98024.02;1743926;82;21028;-77
2022/10/15 02:56:10;;;;;;;11.83;6.55;;;;;;;5.14;90.93;98024.90;1743619;82;21048;-77
2022/10/15 02:58:38;;;;;;;11.43;6.35;;;;;;;5.16;90.75;98022.27;1731726;82;21353;-77
2022/10/15 03:01:05;;;;;;;10.40;6.90;;;;;;;5.14;90.57;98031.47;1752511;82;21001;-78
2022/10/15 03:03:33;;;;;;;11.48;7.20;;;;;;;5.14;90.91;98031.89;1752320;82;21003;-78
2022/10/15 03:05:59;;;;;;;14.80;7.17;;;;;;;5.14;90.77;98028.84;1741220;81;20993;-78
2022/10/15 03:08:26;;;;;;;13.78;7.03;;;;;;;5.15;90.54;98034.98;1747945;82;21048;-78
2022/10/15 03:10:52;;;;;;;10.45;6.75;;;;;;;5.10;90.71;98026.23;1752358;82;20997;-78
2022/10/15 03:13:19;;;;;;;11.60;7.58;;;;;;;5.10;90.93;98022.28;1752446;81;20970;-78
2022/10/15 03:15:48;;;;;;;12.95;6.75;;;;;;;5.11;90.81;98026.69;1751927;82;21041;-78
2022/10/15 03:18:14;;;;;;;10.35;6.42;;;;;;;5.12;90.86;98021.39;1741399;82;21461;-78
2022/10/15 03:20:42;;;;;;;11.55;6.97;;;;;;;5.12;90.57;98022.70;1737729;82;20957;-78
2022/10/15 03:23:11;;;;;;;12.40;7.10;;;;;;;5.08;90.88;98035.45;1751951;81;20997;-78
2022/10/15 03:25:38;;;;;;;12.35;6.30;;;;;;;5.13;90.98;98018.34;1752355;82;20945;-78
2022/10/15 03:28:04;;;;;;;12.82;7.12;;;;;;;5.11;90.72;98029.31;1745554;82;21021;-78
2022/10/15 03:30:38;;;;;;;12.05;7.15;;;;;;;5.08;90.83;98026.27;1728575;82;21052;-78
2022/10/15 03:33:05;;;;;;;10.05;6.53;;;;;;;5.06;90.59;98037.20;1724892;82;21466;-78
2022/10/15 03:35:32;;;;;;;11.70;7.12;;;;;;;5.02;90.57;98035.48;1752496;82;20941;-78
2022/10/15 03:37:59;;;;;;;11.55;6.58;;;;;;;4.98;90.27;98035.09;1752140;82;20992;-78
2022/10/15 03:40:25;;;;;;;13.38;6.75;;;;;;;4.92;90.30;98042.98;1738090;82;21561;-76
2022/10/15 03:42:55;;;;;;;12.63;6.97;;;;;;;4.84;90.04;98036.04;1752441;82;20985;-76
2022/10/15 03:45:24;;;;;;;15.28;7.28;;;;;;;4.75;90.10;98044.85;1752331;81;20945;-77
2022/10/15 03:47:52;;;;;;;13.10;7.00;;;;;;;4.73;90.33;98036.52;1734000;82;20977;-77
2022/10/15 03:50:19;;;;;;;12.10;6.90;;;;;;;4.70;90.49;98040.03;1752390;81;21415;-77
2022/10/15 03:52:46;;;;;;;14.87;6.80;;;;;;;4.68;90.50;98037.87;1752368;82;20973;-77
2022/10/15 03:55:13;;;;;;;12.63;7.15;;;;;;;4.68;90.64;98037.87;1752479;81;21411;-77
2022/10/15 03:57:41;;;;;;;12.82;7.35;;;;;;;4.64;90.46;98040.53;1736779;82;21057;-77
2022/10/15 04:00:09;;;;;;;15.55;7.50;;;;;;;4.56;90.51;98047.98;1750288;82;21020;-77
2022/10/15 04:02:39;;;;;;;13.62;7.20;;;;;;;4.52;90.42;98052.81;1752362;82;20965;-77
2022/10/15 04:05:07;;;;;;;10.80;7.53;;;;;;;4.45;90.14;98044.09;1752368;82;21033;-77
2022/10/15 04:07:35;;;;;;;11.57;7.15;;;;;;;4.40;90.05;98045.86;1751258;81;21008;-77
2022/10/15 04:10:03;;;;;;;13.25;8.00;;;;;;;4.39;90.37;98045.43;1752351;81;21099;-77
2022/10/15 04:12:31;;;;;;;13.28;7.80;;;;;;;4.37;90.27;98039.33;1751415;82;20984;-77
2022/10/15 04:14:58;;;;;;;12.98;7.60;;;;;;;4.36;90.35;98043.69;1752490;82;20977;-77
2022/10/15 04:17:25;;;;;;;13.62;6.80;;;;;;;4.38;90.72;98046.75;1750453;81;21032;-77
2022/10/15 04:19:51;;;;;;;14.93;7.17;;;;;;;4.40;90.58;98047.17;1752106;81;21482;-77
2022/10/15 04:22:19;;;;;;;12.88;7.05;;;;;;;4.40;90.45;98045.86;1752339;81;20985;-77
2022/10/15 04:24:47;;;;;;;13.83;7.33;;;;;;;4.41;90.67;98046.75;1752339;82;21025;-77
2022/10/15 04:27:16;;;;;;;15.85;7.40;;;;;;;4.43;90.66;98039.30;1750606;82;21009;-76
2022/10/15 04:29:42;;;;;;;17.82;7.33;;;;;;;4.46;90.73;98047.17;1740215;82;21032;-77
2022/10/15 04:32:14;;;;;;;13.15;7.28;;;;;;;4.50;90.83;98042.77;1740817;82;21036;-77
2022/10/15 04:34:40;;;;;;;17.60;8.30;;;;;;;4.56;90.93;98045.79;1752075;82;21426;-77
2022/10/15 04:37:07;;;;;;;12.90;7.83;;;;;;;4.61;90.91;98043.59;1752329;81;20985;-78
2022/10/15 04:39:34;;;;;;;13.55;7.35;;;;;;;4.65;90.93;98043.59;1747583;82;20996;-77
2022/10/15 04:42:00;;;;;;;15.75;7.70;;;;;;;4.67;90.57;98052.31;1736912;82;21059;-77
2022/10/15 04:44:29;;;;;;;11.78;7.35;;;;;;;4.68;90.64;98054.94;1749734;82;20962;-77
2022/10/15 04:46:57;;;;;;;12.10;7.12;;;;;;;4.71;91.00;98047.48;1696899;84;20985;-77
2022/10/15 04:49:28;;;;;;;16.93;7.70;;;;;;;4.73;90.88;98054.90;1740912;82;20969;-78
2022/10/15 04:51:55;;;;;;;28.38;16.07;;;;;;;4.73;90.86;98052.27;1752638;82;21008;-78
2022/10/15 04:54:23;;;;;;;14.28;8.10;;;;;;;4.71;90.58;98056.67;1751492;82;20987;-77
2022/10/15 04:57:04;;;;;;;11.45;7.12;;;;;;;4.72;90.63;98057.09;1732693;82;21064;-77
2022/10/15 04:59:31;;;;;;;15.08;7.53;;;;;;;4.70;90.77;98054.94;1740329;82;21028;-77
2022/10/15 05:02:16;;;;;;;11.63;6.97;;;;;;;4.73;91.00;98055.78;1734650;82;20989;-77
2022/10/15 05:04:44;;;;;;;12.18;7.55;;;;;;;4.75;90.85;98063.66;1752271;82;20946;-77
2022/10/15 05:07:12;;;;;;;13.83;7.58;;;;;;;4.75;90.69;98057.98;1752643;82;21032;-77
2022/10/15 05:09:38;;;;;;;13.15;7.33;;;;;;;4.75;90.60;98065.86;1752313;82;21001;-77
2022/10/15 05:12:05;;;;;;;14.83;7.03;;;;;;;4.78;90.60;98066.70;1741794;81;21005;-77
2022/10/15 05:14:32;;;;;;;14.03;7.37;;;;;;;4.78;90.54;98071.53;1752533;81;20985;-77
2022/10/15 05:17:06;;;;;;;13.85;6.62;;;;;;;4.80;90.56;98067.13;1739664;82;21037;-77
2022/10/15 05:19:34;;;;;;;17.92;7.95;;;;;;;4.80;90.64;98076.32;1735734;82;21403;-77
2022/10/15 05:22:02;;;;;;;12.70;7.55;;;;;;;4.86;90.93;98076.73;1736328;83;21011;-78
2022/10/15 05:24:30;;;;;;;14.85;7.20;;;;;;;4.90;90.93;98078.44;1734147;83;21012;-77
2022/10/15 05:27:04;;;;;;;12.05;7.53;;;;;;;4.94;91.00;98086.74;1734055;82;21419;-77
2022/10/15 05:29:32;;;;;;;11.95;7.12;;;;;;;4.94;90.60;98086.74;1729500;82;20997;-77
2022/10/15 05:31:59;;;;;;;14.10;7.20;;;;;;;4.94;90.75;98086.74;1722751;83;21022;-77
2022/10/15 05:34:29;;;;;;;13.60;7.37;;;;;;;4.95;90.67;98084.58;1735226;82;20990;-77
2022/10/15 05:36:57;;;;;;;13.22;7.50;;;;;;;4.98;90.99;98081.06;1720463;83;20998;-77
2022/10/15 05:39:24;;;;;;;16.40;8.73;;;;;;;5.07;91.25;98086.69;1736199;82;21466;-77
2022/10/15 05:41:52;;;;;;;13.65;8.45;;;;;;;5.07;90.68;98088.00;1736252;82;21045;-77
2022/10/15 05:44:20;;;;;;;18.42;8.50;;;;;;;5.01;90.57;98094.16;1735846;82;21590;-78
2022/10/15 05:46:47;;;;;;;17.15;9.58;;;;;;;5.06;91.09;98094.14;1717960;83;20993;-77
2022/10/15 05:49:15;;;;;;;18.42;9.03;;;;;;;5.07;90.83;98094.11;1735930;82;21002;-77
2022/10/15 05:51:47;;;;;;;18.60;9.98;;;;;;;5.08;90.90;98097.19;1735540;82;21009;-77
2022/10/15 05:54:15;;;;;;;17.45;9.35;;;;;;;5.12;90.77;98101.98;1719117;82;22212;-77
2022/10/15 05:56:42;;;;;;;16.37;9.53;;;;;;;5.12;90.90;98101.98;1731760;83;21037;-77
2022/10/15 05:59:08;;;;;;;14.55;9.15;;;;;;;5.17;90.97;98108.51;1736196;83;20986;-77
2022/10/15 06:01:36;;;;;;;15.93;9.43;;;;;;;5.20;90.82;98109.39;1735733;83;20970;-77
2022/10/15 06:04:03;;;;;;;17.30;10.20;;;;;;;5.17;90.63;98102.83;1719731;83;21013;-77
2022/10/15 06:06:30;;;;;;;61.48;27.40;;;;;;;5.19;90.73;98109.39;1736131;83;21009;-77
2022/10/15 06:09:00;;;;;;;24.15;13.10;;;;;;;5.21;90.76;98110.23;1736414;82;20997;-77
2022/10/15 06:11:29;;;;;;;22.25;11.40;;;;;;;5.26;90.91;98113.28;1735541;83;21029;-77
2022/10/15 06:13:55;;;;;;;21.02;9.70;;;;;;;5.34;90.89;98112.34;1716558;83;20962;-77
2022/10/15 06:16:22;;;;;;;16.65;9.53;;;;;;;5.39;91.25;98112.75;1736263;82;21436;-77
2022/10/15 06:18:48;;;;;;;15.95;9.40;;;;;;;5.45;91.31;98114.48;1736359;82;20974;-77
2022/10/15 06:21:14;;;;;;;19.65;9.55;;;;;;;5.52;91.20;98118.80;1736415;83;21439;-77
2022/10/15 06:23:41;;;;;;;22.85;9.93;;;;;;;5.55;90.80;98123.16;1735643;82;21044;-77
2022/10/15 06:26:09;;;;;;;21.45;9.10;;;;;;;5.54;90.78;98116.16;1736417;83;21440;-77
2022/10/15 06:28:36;;;;;;;18.27;9.28;;;;;;;5.55;90.60;98120.10;1736450;82;21455;-77
2022/10/15 06:31:05;;;;;;;19.05;10.68;;;;;;;5.54;90.74;98122.73;1715705;82;21006;-76
2022/10/15 06:33:33;;;;;;;19.00;9.88;;;;;;;5.56;90.93;98124.90;1736394;82;21478;-77
2022/10/15 06:36:07;;;;;;;24.10;11.28;;;;;;;5.60;90.98;98122.68;1733727;82;20993;-76
2022/10/15 06:38:34;;;;;;;24.37;10.88;;;;;;;5.63;90.92;98122.67;1736517;83;21376;-77
2022/10/15 06:41:06;;;;;;;17.55;10.00;;;;;;;5.66;90.97;98116.05;1736310;82;21066;-77
2022/10/15 06:43:33;;;;;;;17.67;9.98;;;;;;;5.71;91.04;98123.03;1736420;82;21020;-77
2022/10/15 06:46:00;;;;;;;18.17;9.60;;;;;;;5.74;90.88;98121.70;1731714;82;20993;-77
2022/10/15 06:48:27;;;;;;;20.40;10.35;;;;;;;5.81;90.80;98124.70;1726937;82;20971;-77
2022/10/15 06:50:53;;;;;;;19.65;10.15;;;;;;;5.88;90.74;98119.84;1727972;83;21485;-77
2022/10/15 06:53:21;;;;;;;18.48;9.38;;;;;;;5.94;90.69;98122.88;1733992;83;20962;-77
2022/10/15 06:55:47;;;;;;;17.42;9.93;;;;;;;6.00;90.76;98126.75;1736408;83;20986;-77
2022/10/15 06:58:14;;;;;;;16.55;9.43;;;;;;;6.07;90.90;98128.45;1724358;82;21010;-77
2022/10/15 07:00:40;;;;;;;16.23;7.60;;;;;;;6.19;91.36;98125.30;1728821;83;21007;-77
2022/10/15 07:03:07;;;;;;;16.55;8.53;;;;;;;6.28;91.04;98117.32;1736346;82;20974;-77
2022/10/15 07:05:36;;;;;;;15.32;8.18;;;;;;;6.36;90.89;98118.98;1736332;83;21021;-77
2022/10/15 07:08:04;;;;;;;12.68;7.87;;;;;;;6.44;90.96;98115.84;1736375;83;21198;-76
2022/10/15 07:10:30;;;;;;;20.25;9.35;;;;;;;6.53;91.07;98119.69;1736484;82;20942;-78
2022/10/15 07:13:02;;;;;;;13.75;8.68;;;;;;;6.65;91.43;98121.31;1732997;83;21769;-77
2022/10/15 07:15:28;;;;;;;13.03;8.50;;;;;;;6.76;91.28;98117.67;1736243;82;20981;-77
2022/10/15 07:18:00;;;;;;;13.70;8.98;;;;;;;6.85;90.82;98122.37;1750114;82;21024;-77
2022/10/15 07:20:24;;;;;;;15.32;9.58;;;;;;;6.93;90.72;98124.91;1752233;82;21407;-77
2022/10/15 07:23:00;;;;;;;14.43;9.00;;;;;;;7.02;90.80;98121.27;1748829;82;21051;-77
2022/10/15 07:25:29;;;;;;;15.65;9.18;;;;;;;7.09;90.52;98116.36;1752342;82;20980;-77
2022/10/15 07:27:56;;;;;;;18.35;9.18;;;;;;;7.18;90.57;98110.08;1752460;82;21533;-77
2022/10/15 07:30:26;;;;;;;19.27;10.60;;;;;;;7.28;90.54;98112.15;1734816;82;21024;-77
2022/10/15 07:32:57;;;;;;;18.60;10.80;;;;;;;7.36;90.43;98112.03;1685610;85;21048;-77
2022/10/15 07:35:26;;;;;;;20.40;10.45;;;;;;;7.45;90.39;98113.66;1748258;82;20985;-78
2022/10/15 07:37:52;;;;;;;19.57;10.85;;;;;;;7.52;90.22;98114.86;1752529;82;21001;-78
2022/10/15 07:40:19;;;;;;;21.85;11.15;;;;;;;7.60;90.19;98119.16;1752559;82;20957;-77
2022/10/15 07:42:55;;;;;;;19.17;11.78;;;;;;;7.66;90.17;98115.98;1752330;82;21438;-78
2022/10/15 07:45:24;;;;;;;21.87;11.83;;;;;;;7.75;90.20;98116.70;1748996;82;20988;-78
2022/10/15 07:47:52;;;;;;;25.00;13.05;;;;;;;7.84;90.30;98118.34;1745587;82;21016;-78
2022/10/15 07:50:20;;;;;;;26.07;13.65;;;;;;;7.93;90.21;98118.16;1752287;82;20961;-78
2022/10/15 07:52:47;;;;;;;23.32;13.45;;;;;;;7.98;90.15;98113.71;1752461;82;21060;-77
2022/10/15 07:55:14;;;;;;;28.70;15.00;;;;;;;8.05;90.05;98119.29;1732573;82;20957;-78
2022/10/15 07:57:40;;;;;;;27.77;14.85;;;;;;;8.11;89.87;98117.00;1752356;82;22106;-77
2022/10/15 08:00:09;;;;;;;28.05;16.10;;;;;;;8.17;89.92;98117.32;1752446;82;20984;-77
2022/10/15 08:02:42;;;;;;;32.90;17.85;;;;;;;8.24;89.80;98120.73;1752407;82;21387;-78
2022/10/15 08:05:08;;;;;;;33.60;18.23;;;;;;;8.28;89.52;98120.66;1737432;82;20977;-78
2022/10/15 08:07:36;;;;;;;35.78;19.45;;;;;;;8.33;89.43;98125.84;1752502;82;21016;-78
2022/10/15 08:10:06;;;;;;;37.35;20.23;;;;;;;8.39;89.40;98119.59;1751960;82;21048;-78
2022/10/15 08:12:33;;;;;;;38.98;21.68;;;;;;;8.48;89.28;98125.14;1752330;82;20980;-77
2022/10/15 08:14:59;;;;;;;54.15;24.57;;;;;;;8.55;89.15;98121.50;1738668;82;21095;-78
2022/10/15 08:17:26;;;;;;;47.80;22.07;;;;;;;8.63;88.42;98117.41;1752295;81;21422;-78
2022/10/15 08:19:54;;;;;;;51.20;22.22;;;;;;;8.64;88.23;98129.24;1739808;82;21080;-78
2022/10/15 08:22:21;;;;;;;49.18;23.70;;;;;;;8.70;88.67;98128.27;1730718;82;20957;-78
2022/10/15 08:24:47;;;;;;;49.58;22.00;;;;;;;8.77;88.78;98127.26;1739764;82;21056;-78
2022/10/15 08:27:14;;;;;;;54.40;23.70;;;;;;;8.85;88.76;98127.95;1752458;82;21388;-78
2022/10/15 08:29:41;;;;;;;57.45;25.48;;;;;;;8.93;88.69;98127.79;1729758;82;21486;-78
2022/10/15 08:32:07;;;;;;;53.33;22.65;;;;;;;9.02;88.16;98131.16;1738591;82;20957;-78
2022/10/15 08:34:34;;;;;;;58.87;25.77;;;;;;;9.10;88.67;98127.44;1735297;82;21102;-77
2022/10/15 08:37:02;;;;;;;54.73;25.65;;;;;;;9.18;87.79;98134.34;1752371;81;21426;-77
2022/10/15 08:39:29;;;;;;;52.48;23.67;;;;;;;9.29;88.35;98139.38;1752225;82;21423;-78
2022/10/15 08:42:03;;;;;;;47.60;23.27;;;;;;;9.38;88.06;98141.38;1747376;82;20957;-77
2022/10/15 08:44:50;;;;;;;49.90;23.20;;;;;;;9.47;88.21;98141.62;1752204;82;21013;-77
2022/10/15 08:47:37;;;;;;;54.63;26.60;;;;;;;9.66;88.29;98142.96;1752300;82;20949;-77
2022/10/15 08:50:39;;;;;;;38.28;20.20;;;;;;;9.85;88.00;98142.09;1752071;82;21017;-77
2022/10/15 08:53:15;;;;;;;35.35;17.55;;;;;;;10.09;87.54;98146.37;1748096;82;20973;-78
2022/10/15 08:55:47;;;;;;;32.42;17.20;;;;;;;10.25;87.15;98148.14;1751955;82;20981;-77
2022/10/15 08:58:40;;;;;;;28.73;14.65;;;;;;;10.43;87.22;98146.81;1752480;82;21394;-77
2022/10/15 09:01:38;;;;;;;24.77;13.43;;;;;;;10.49;85.75;98148.45;1746516;82;21438;-77
2022/10/15 09:04:25;;;;;;;26.02;14.73;;;;;;;10.51;85.67;98143.52;1736147;82;21005;-77
2022/10/15 09:07:00;;;;;;;24.52;14.75;;;;;;;10.63;84.49;98145.44;1752262;82;21069;-77
2022/10/15 09:09:51;;;;;;;25.52;15.03;;;;;;;10.75;84.47;98152.19;1749155;82;20980;-78
2022/10/15 09:12:49;;;;;;;26.52;15.85;;;;;;;10.87;83.95;98154.95;1732178;82;21080;-77
2022/10/15 09:15:19;;;;;;;31.30;18.50;;;;;;;10.98;84.49;98157.28;1752461;82;20984;-77
2022/10/15 09:17:49;;;;;;;34.50;19.15;;;;;;;11.09;82.09;98147.25;1737863;80;21036;-76
2022/10/15 09:20:24;;;;;;;37.90;20.05;;;;;;;11.12;80.67;98153.77;1739334;82;21004;-77
2022/10/15 09:22:52;;;;;;;35.92;20.05;;;;;;;11.15;82.70;98150.16;1752476;82;20977;-77
2022/10/15 09:25:22;;;;;;;38.75;20.00;;;;;;;11.13;81.50;98160.81;1752413;82;20985;-77
2022/10/15 09:27:51;;;;;;;44.73;18.62;;;;;;;11.13;81.99;98153.33;1752439;82;20981;-77
2022/10/15 09:30:40;;;;;;;30.70;18.17;;;;;;;11.24;81.95;98158.33;1736096;81;21040;-77
2022/10/15 09:33:22;;;;;;;28.30;16.70;;;;;;;11.33;81.30;98165.98;1743788;82;20996;-77
2022/10/15 09:35:57;;;;;;;43.80;23.67;;;;;;;11.42;81.60;98151.12;1752723;82;20985;-77
2022/10/15 09:38:59;;;;;;;30.35;18.02;;;;;;;11.45;80.73;98161.64;1751392;82;20981;-77
2022/10/15 09:42:00;;;;;;;32.28;16.85;;;;;;;11.47;80.66;98160.28;1752608;82;21017;-77
2022/10/15 09:44:32;;;;;;;27.77;16.60;;;;;;;11.52;81.06;98168.97;1750360;82;20997;-78
2022/10/15 09:46:59;;;;;;;30.52;17.00;;;;;;;11.60;80.42;98163.42;1751636;82;20989;-78
2022/10/15 09:49:27;;;;;;;24.92;16.10;;;;;;;11.54;80.14;98163.62;1752426;82;20997;-78
2022/10/15 09:52:18;;;;;;;27.20;16.12;;;;;;;11.55;80.39;98156.91;1725053;82;21059;-78
2022/10/15 09:55:09;;;;;;;24.25;14.58;;;;;;;11.66;80.97;98156.58;1740173;82;21119;-78
2022/10/15 09:57:37;;;;;;;26.15;15.58;;;;;;;11.87;79.62;98148.84;1740867;82;21421;-78
2022/10/15 10:00:10;;;;;;;21.97;14.75;;;;;;;11.95;79.56;98145.94;1746472;82;21009;-78
2022/10/15 10:02:40;;;;;;;26.42;15.50;;;;;;;12.07;79.47;98149.56;1739611;82;20938;-78
2022/10/15 10:05:30;;;;;;;23.65;13.78;;;;;;;12.22;78.30;98156.61;1752625;82;21068;-78
2022/10/15 10:08:21;;;;;;;19.65;12.73;;;;;;;12.38;79.34;98159.14;1748263;81;21426;-79
2022/10/15 10:10:59;;;;;;;24.15;14.55;;;;;;;12.45;77.73;98161.61;1734907;82;21048;-78
2022/10/15 10:13:38;;;;;;;20.25;13.72;;;;;;;12.43;78.08;98159.45;1752564;82;21055;-77
2022/10/15 10:16:10;;;;;;;23.00;13.72;;;;;;;12.40;77.95;98159.09;1750708;82;21458;-78
2022/10/15 10:18:37;;;;;;;22.05;13.48;;;;;;;12.52;78.30;98167.11;1748062;82;21057;-77
2022/10/15 10:21:20;;;;;;;27.00;13.13;;;;;;;12.68;77.82;98162.13;1752301;82;20992;-77
2022/10/15 10:23:47;;;;;;;20.65;13.85;;;;;;;12.86;78.56;98163.70;1752372;82;21036;-78
2022/10/15 10:26:14;;;;;;;22.20;13.13;;;;;;;13.53;78.06;98159.95;1752547;82;21474;-78
2022/10/15 10:28:54;;;;;;;17.57;13.13;;;;;;;13.97;74.10;98149.31;1751598;82;21064;-77
2022/10/15 10:31:32;;;;;;;17.45;12.88;;;;;;;14.27;71.06;98149.42;1723234;80;21028;-78
2022/10/15 10:34:03;;;;;;;16.32;12.20;;;;;;;14.61;72.38;98145.76;1722818;82;20957;-77
2022/10/15 10:36:33;;;;;;;20.15;13.48;;;;;;;15.06;73.19;98138.48;1752491;80;20969;-77
2022/10/15 10:39:05;;;;;;;19.20;12.37;;;;;;;15.86;71.93;98139.64;1752435;82;21036;-78
2022/10/15 10:42:06;;;;;;;16.50;11.68;;;;;;;16.73;70.53;98132.64;1742138;82;20992;-77
2022/10/15 10:44:45;;;;;;;15.03;10.85;;;;;;;17.25;70.30;98139.33;1752343;81;21415;-78
2022/10/15 10:47:25;;;;;;;14.58;10.50;;;;;;;17.61;66.90;98132.02;1752402;82;21423;-77
2022/10/15 10:49:57;;;;;;;20.23;11.35;;;;;;;17.91;65.68;98121.38;1752326;82;21056;-78
2022/10/15 10:52:34;;;;;;;16.73;10.75;;;;;;;18.66;65.94;98121.52;1715982;82;21040;-78
2022/10/15 10:55:12;;;;;;;14.03;10.90;;;;;;;19.47;59.81;98118.77;1752427;82;21559;-78
2022/10/15 10:57:49;;;;;;;15.98;11.57;;;;;;;19.60;59.34;98109.42;1752104;82;21418;-78
2022/10/15 11:00:42;;;;;;;20.23;12.78;;;;;;;20.04;60.74;98110.66;1752471;82;21024;-78
2022/10/15 11:03:32;;;;;;;18.73;11.95;;;;;;;20.81;57.94;98109.92;1745474;82;21415;-77
2022/10/15 11:06:35;;;;;;;23.32;13.40;;;;;;;21.27;55.59;98104.11;1752353;81;21036;-78
2022/10/15 11:09:11;;;;;;;22.10;12.93;;;;;;;21.14;55.43;98100.96;1752648;82;20965;-78
2022/10/15 11:12:01;;;;;;;17.07;12.53;;;;;;;21.83;53.40;98097.38;1750140;82;21040;-78
2022/10/15 11:14:56;;;;;;;15.98;11.80;;;;;;;21.63;51.43;98092.47;1739696;82;20953;-77
2022/10/15 11:17:45;;;;;;;16.60;12.07;;;;;;;21.80;53.44;98096.28;1752366;82;21008;-78
2022/10/15 11:20:35;;;;;;;18.60;12.20;;;;;;;22.52;51.34;98076.44;1752463;82;21447;-77
2022/10/15 11:23:23;;;;;;;14.63;12.43;;;;;;;22.60;48.20;98078.58;1739177;82;20981;-77
2022/10/15 11:26:23;;;;;;;18.75;12.18;;;;;;;22.00;52.21;98071.83;1752240;82;20989;-78
2022/10/15 11:29:20;;;;;;;17.12;12.53;;;;;;;21.64;49.92;98069.07;1752342;82;21569;-77
2022/10/15 11:32:17;;;;;;;17.52;12.90;;;;;;;20.40;51.25;98066.56;1723062;82;21036;-77
2022/10/15 11:35:15;;;;;;;15.55;13.05;;;;;;;19.88;53.26;98069.09;1730559;80;21010;-77
2022/10/15 11:37:56;;;;;;;17.92;12.63;;;;;;;19.73;53.97;98065.11;1752520;82;21040;-77
2022/10/15 11:40:44;;;;;;;20.70;13.30;;;;;;;19.28;54.20;98057.29;1752158;82;21012;-77
2022/10/15 11:43:34;;;;;;;17.95;12.68;;;;;;;18.99;54.31;98055.95;1751328;82;20991;-77
2022/10/15 11:46:09;;;;;;;20.27;13.72;;;;;;;18.42;55.91;98061.20;1752518;82;21020;-78
2022/10/15 11:49:16;;;;;;;18.05;12.58;;;;;;;18.84;56.43;98060.45;1752388;82;20974;-78
2022/10/15 11:52:05;;;;;;;19.10;13.38;;;;;;;18.95;55.78;98054.41;1752462;82;21013;-78
2022/10/15 11:54:46;;;;;;;18.82;13.25;;;;;;;18.94;56.29;98048.66;1732432;82;21009;-78
2022/10/15 11:57:17;;;;;;;17.90;13.93;;;;;;;18.67;56.31;98051.64;1752374;82;20984;-78